EDT,Max TemperatureF,Mean TemperatureF,Min TemperatureF,Max Dew PointF,MeanDew PointF,Min DewpointF,Max Humidity, Mean Humidity, Min Humidity, Max Sea Level PressureIn, Mean Sea Level PressureIn, Min Sea Level PressureIn, Max VisibilityMiles, Mean VisibilityMiles, Min VisibilityMiles, Max Wind SpeedMPH, Mean Wind SpeedMPH, Max Gust SpeedMPH,PrecipitationIn, CloudCover, Events, WindDirDegrees
2013-9-1,80,71,62,70,64,61,93,82,71,29.87,29.80,29.73,10,5,0,13,3,,0.06,5,Fog-Rain-Thunderstorm,108
2013-9-2,75,66,57,70,60,51,90,74,57,29.94,29.82,29.73,10,8,3,20,11,25,T,7,Rain-Thunderstorm,302
2013-9-3,76,67,58,54,52,50,80,61,41,30.02,29.98,29.93,10,10,7,17,9,30,0.00,4,,297
2013-9-4,83,68,53,63,57,51,93,69,45,30.09,30.04,29.99,10,10,10,17,9,23,0.00,2,,270
2013-9-5,71,59,47,61,48,40,87,63,38,30.28,30.22,30.11,10,10,10,14,7,18,0.00,1,,355
2013-9-6,76,59,41,52,47,37,93,66,38,30.30,30.22,30.07,10,10,2,10,3,16,0.00,0,,191
2013-9-7,79,70,61,68,59,47,84,68,52,30.06,29.97,29.90,10,9,6,12,7,16,0.05,4,,234
2013-9-8,74,64,54,67,58,47,84,63,41,30.12,30.04,29.94,10,9,6,21,10,25,0.00,5,,39
2013-9-9,80,65,49,68,58,47,89,76,63,30.09,30.00,29.88,10,9,5,13,6,17,0.01,4,Rain,161
2013-9-10,96,86,75,70,67,61,82,58,33,30.00,29.93,29.86,10,9,7,20,10,26,0.00,0,,225
2013-9-11,92,81,70,69,66,63,79,63,47,30.03,29.98,29.93,10,10,7,18,9,23,T,1,Thunderstorm,245
2013-9-12,80,69,58,64,58,43,93,66,39,29.98,29.92,29.86,10,8,1,17,9,24,0.18,4,Rain,300
2013-9-13,60,49,37,45,41,36,76,58,40,30.17,30.09,29.98,10,10,10,21,10,24,0.00,6,,357
2013-9-14,70,53,36,43,39,34,92,62,32,30.21,30.15,30.09,10,10,2,12,4,16,0.00,0,,227
2013-9-15,64,57,49,54,48,41,93,73,52,30.14,30.10,30.07,10,10,4,12,4,,0.10,5,Rain,219
2013-9-16,64,53,41,54,47,38,93,70,46,30.42,30.29,30.14,10,8,1,18,9,23,0.02,6,Rain,359
2013-9-17,69,51,32,48,40,30,92,69,45,30.44,30.38,30.25,10,8,0,14,4,20,0.00,1,Fog,152
2013-9-18,78,60,42,55,49,40,89,64,39,30.24,30.13,30.04,10,10,10,16,6,28,0.00,0,,169
2013-9-19,82,70,58,66,61,55,93,76,58,30.04,29.98,29.89,10,9,5,14,7,18,0.00,3,,180
2013-9-20,81,75,68,70,66,64,90,77,64,29.88,29.79,29.73,10,8,4,15,8,22,0.01,6,Rain,217
2013-9-21,71,63,54,65,53,41,93,69,44,29.90,29.75,29.68,10,9,5,23,11,29,T,7,,296
2013-9-22,59,52,44,43,39,37,83,64,44,30.12,30.02,29.91,10,10,10,16,7,21,0.00,5,,4
2013-9-23,62,48,34,43,40,32,92,71,49,30.22,30.17,30.13,10,10,2,10,2,21,0.00,3,,96
2013-9-24,70,53,35,46,41,34,100,70,40,30.19,30.12,30.02,10,8,0,9,3,12,0.00,0,Fog,97
2013-9-25,75,57,38,52,44,37,96,65,33,30.05,30.02,29.97,10,6,0,9,4,14,0.00,2,Fog,60
2013-9-26,79,59,38,52,45,36,96,64,32,30.16,30.09,30.03,10,5,0,12,2,20,0.00,1,Fog,39
2013-9-27,79,61,42,53,47,39,93,65,37,30.25,30.21,30.17,10,7,1,12,3,25,0.00,0,,139
2013-9-28,79,63,47,59,51,48,100,69,37,30.21,30.16,30.01,10,6,0,17,8,22,0.00,0,Fog,133
2013-9-29,67,62,57,60,56,52,93,76,58,30.01,29.99,29.94,10,7,2,13,6,25,0.18,7,Rain,216
2013-9-30,72,60,48,56,52,45,93,67,41,30.03,29.99,29.93,10,7,0,13,4,25,0.00,5,Fog,306